sensor_id;sensor_type;location;lat;lon;timestamp;temperature;humidity
14122;DHT22;7139;48.114;11.442;2022-08-19T00:00:35;18.70;99.90
14122;DHT22;7139;48.114;11.442;2022-08-19T00:03:03;18.60;99.90
14122;DHT22;7139;48.114;11.442;2022-08-19T00:05:30;18.60;99.90
14122;DHT22;7139;48.114;11.442;2022-08-19T00:07:57;18.60;99.90
14122;DHT22;7139;48.114;11.442;2022-08-19T00:10:24;18.60;99.90
14122;DHT22;7139;48.114;11.442;2022-08-19T00:12:51;18.60;99.90
14122;DHT22;7139;48.114;11.442;2022-08-19T00:15:21;18.60;99.90
14122;DHT22;7139;48.114;11.442;2022-08-19T00:17:48;18.70;99.90
14122;DHT22;7139;48.114;11.442;2022-08-19T00:20:18;18.70;99.90
14122;DHT22;7139;48.114;11.442;2022-08-19T00:22:45;18.70;99.90
14122;DHT22;7139;48.114;11.442;2022-08-19T00:25:13;18.70;99.90
14122;DHT22;7139;48.114;11.442;2022-08-19T00:27:40;18.80;99.90
14122;DHT22;7139;48.114;11.442;2022-08-19T00:30:08;18.80;99.90
14122;DHT22;7139;48.114;11.442;2022-08-19T00:32:37;18.80;99.90
14122;DHT22;7139;48.114;11.442;2022-08-19T00:35:05;18.80;99.90
14122;DHT22;7139;48.114;11.442;2022-08-19T00:37:32;18.80;99.90
14122;DHT22;7139;48.114;11.442;2022-08-19T00:40:00;18.80;99.90
14122;DHT22;7139;48.114;11.442;2022-08-19T00:42:27;18.90;99.90
14122;DHT22;7139;48.114;11.442;2022-08-19T00:44:54;18.90;99.90
14122;DHT22;7139;48.114;11.442;2022-08-19T00:47:21;18.90;99.90
14122;DHT22;7139;48.114;11.442;2022-08-19T00:49:51;18.90;99.90
14122;DHT22;7139;48.114;11.442;2022-08-19T00:52:22;18.80;99.90
14122;DHT22;7139;48.114;11.442;2022-08-19T00:54:51;18.80;99.90
14122;DHT22;7139;48.114;11.442;2022-08-19T00:57:22;18.80;99.90
14122;DHT22;7139;48.114;11.442;2022-08-19T00:59:52;18.90;99.90
14122;DHT22;7139;48.114;11.442;2022-08-19T01:02:20;18.90;99.90
14122;DHT22;7139;48.114;11.442;2022-08-19T01:04:48;18.90;99.90
14122;DHT22;7139;48.114;11.442;2022-08-19T01:07:15;18.80;99.90
14122;DHT22;7139;48.114;11.442;2022-08-19T01:09:42;18.80;99.90
14122;DHT22;7139;48.114;11.442;2022-08-19T01:12:09;18.80;99.90
14122;DHT22;7139;48.114;11.442;2022-08-19T01:14:37;18.80;99.90
14122;DHT22;7139;48.114;11.442;2022-08-19T01:17:05;18.90;99.90
14122;DHT22;7139;48.114;11.442;2022-08-19T01:19:35;18.80;99.90
14122;DHT22;7139;48.114;11.442;2022-08-19T01:22:08;18.80;99.90
14122;DHT22;7139;48.114;11.442;2022-08-19T01:24:38;18.70;99.90
14122;DHT22;7139;48.114;11.442;2022-08-19T01:27:05;18.70;99.90
14122;DHT22;7139;48.114;11.442;2022-08-19T01:29:33;18.70;99.90
14122;DHT22;7139;48.114;11.442;2022-08-19T01:32:01;18.70;99.90
14122;DHT22;7139;48.114;11.442;2022-08-19T01:34:27;18.80;99.90
14122;DHT22;7139;48.114;11.442;2022-08-19T01:36:54;18.80;99.90
14122;DHT22;7139;48.114;11.442;2022-08-19T01:39:24;18.70;99.90
14122;DHT22;7139;48.114;11.442;2022-08-19T01:41:52;18.70;99.90
14122;DHT22;7139;48.114;11.442;2022-08-19T01:44:19;18.70;99.90
14122;DHT22;7139;48.114;11.442;2022-08-19T01:46:49;18.60;99.90
14122;DHT22;7139;48.114;11.442;2022-08-19T01:49:18;18.60;99.90
14122;DHT22;7139;48.114;11.442;2022-08-19T01:51:45;18.70;99.90
14122;DHT22;7139;48.114;11.442;2022-08-19T01:54:14;18.70;99.90
14122;DHT22;7139;48.114;11.442;2022-08-19T01:56:41;18.70;99.90
14122;DHT22;7139;48.114;11.442;2022-08-19T01:59:12;18.70;99.90
14122;DHT22;7139;48.114;11.442;2022-08-19T02:01:40;18.70;99.90
14122;DHT22;7139;48.114;11.442;2022-08-19T02:04:07;18.70;99.90
14122;DHT22;7139;48.114;11.442;2022-08-19T02:06:34;18.80;99.90
14122;DHT22;7139;48.114;11.442;2022-08-19T02:09:01;18.70;99.90
14122;DHT22;7139;48.114;11.442;2022-08-19T02:11:30;18.70;99.90
14122;DHT22;7139;48.114;11.442;2022-08-19T02:14:00;18.70;99.90
14122;DHT22;7139;48.114;11.442;2022-08-19T02:16:28;18.70;99.90
14122;DHT22;7139;48.114;11.442;2022-08-19T02:18:56;18.70;99.90
14122;DHT22;7139;48.114;11.442;2022-08-19T02:21:26;18.60;99.90
14122;DHT22;7139;48.114;11.442;2022-08-19T02:23:53;18.70;99.90
14122;DHT22;7139;48.114;11.442;2022-08-19T02:26:21;18.70;99.90
14122;DHT22;7139;48.114;11.442;2022-08-19T02:28:48;18.60;99.90
14122;DHT22;7139;48.114;11.442;2022-08-19T02:31:17;18.60;99.90
14122;DHT22;7139;48.114;11.442;2022-08-19T02:33:46;18.60;99.90
14122;DHT22;7139;48.114;11.442;2022-08-19T02:36:15;18.60;99.90
14122;DHT22;7139;48.114;11.442;2022-08-19T02:38:43;18.60;99.90
14122;DHT22;7139;48.114;11.442;2022-08-19T02:41:12;18.60;99.90
14122;DHT22;7139;48.114;11.442;2022-08-19T02:43:40;18.70;99.90
14122;DHT22;7139;48.114;11.442;2022-08-19T02:46:15;18.70;99.90
14122;DHT22;7139;48.114;11.442;2022-08-19T02:48:48;18.70;99.90
14122;DHT22;7139;48.114;11.442;2022-08-19T02:51:23;18.70;99.90
14122;DHT22;7139;48.114;11.442;2022-08-19T02:53:50;18.70;99.90
14122;DHT22;7139;48.114;11.442;2022-08-19T02:56:18;18.60;99.90
14122;DHT22;7139;48.114;11.442;2022-08-19T02:58:45;18.60;99.90
14122;DHT22;7139;48.114;11.442;2022-08-19T03:01:20;18.60;99.90
14122;DHT22;7139;48.114;11.442;2022-08-19T03:03:48;18.70;99.90
14122;DHT22;7139;48.114;11.442;2022-08-19T03:06:16;18.60;99.90
14122;DHT22;7139;48.114;11.442;2022-08-19T03:08:44;18.60;99.90
14122;DHT22;7139;48.114;11.442;2022-08-19T03:11:15;18.60;99.90
14122;DHT22;7139;48.114;11.442;2022-08-19T03:13:42;18.60;99.90
14122;DHT22;7139;48.114;11.442;2022-08-19T03:16:10;18.70;99.90
14122;DHT22;7139;48.114;11.442;2022-08-19T03:18:37;18.60;99.90
14122;DHT22;7139;48.114;11.442;2022-08-19T03:21:05;18.60;99.90
14122;DHT22;7139;48.114;11.442;2022-08-19T03:23:32;18.60;99.90
14122;DHT22;7139;48.114;11.442;2022-08-19T03:26:03;18.60;99.90
14122;DHT22;7139;48.114;11.442;2022-08-19T03:28:31;18.70;99.90
14122;DHT22;7139;48.114;11.442;2022-08-19T03:31:02;18.60;99.90
14122;DHT22;7139;48.114;11.442;2022-08-19T03:33:30;18.60;99.90
14122;DHT22;7139;48.114;11.442;2022-08-19T03:36:03;18.70;99.90
14122;DHT22;7139;48.114;11.442;2022-08-19T03:38:31;18.70;99.90
14122;DHT22;7139;48.114;11.442;2022-08-19T03:41:03;18.70;99.90
14122;DHT22;7139;48.114;11.442;2022-08-19T03:43:32;18.70;99.90
14122;DHT22;7139;48.114;11.442;2022-08-19T03:46:00;18.70;99.90
14122;DHT22;7139;48.114;11.442;2022-08-19T03:48:29;18.70;99.90
14122;DHT22;7139;48.114;11.442;2022-08-19T03:50:56;18.70;99.90
14122;DHT22;7139;48.114;11.442;2022-08-19T03:53:25;18.70;99.90
14122;DHT22;7139;48.114;11.442;2022-08-19T03:55:54;18.70;99.90
14122;DHT22;7139;48.114;11.442;2022-08-19T03:58:21;18.70;99.90
14122;DHT22;7139;48.114;11.442;2022-08-19T04:00:48;18.70;99.90
14122;DHT22;7139;48.114;11.442;2022-08-19T04:03:14;18.70;99.90
14122;DHT22;7139;48.114;11.442;2022-08-19T04:05:41;18.70;99.90
14122;DHT22;7139;48.114;11.442;2022-08-19T04:08:08;18.70;99.90
14122;DHT22;7139;48.114;11.442;2022-08-19T04:10:35;18.70;99.90
14122;DHT22;7139;48.114;11.442;2022-08-19T04:13:04;18.70;99.90
14122;DHT22;7139;48.114;11.442;2022-08-19T04:15:32;18.70;99.90
14122;DHT22;7139;48.114;11.442;2022-08-19T04:18:04;18.70;99.90
14122;DHT22;7139;48.114;11.442;2022-08-19T04:20:33;18.70;99.90
14122;DHT22;7139;48.114;11.442;2022-08-19T04:22:59;18.70;99.90
14122;DHT22;7139;48.114;11.442;2022-08-19T04:25:26;18.70;99.90
14122;DHT22;7139;48.114;11.442;2022-08-19T04:27:53;18.70;99.90
14122;DHT22;7139;48.114;11.442;2022-08-19T04:30:21;18.70;99.90
14122;DHT22;7139;48.114;11.442;2022-08-19T04:32:48;18.80;99.90
14122;DHT22;7139;48.114;11.442;2022-08-19T04:35:15;18.80;99.90
14122;DHT22;7139;48.114;11.442;2022-08-19T04:37:42;18.70;99.90
14122;DHT22;7139;48.114;11.442;2022-08-19T04:40:10;18.70;99.90
14122;DHT22;7139;48.114;11.442;2022-08-19T04:42:54;18.70;99.90
14122;DHT22;7139;48.114;11.442;2022-08-19T04:45:23;18.70;99.90
14122;DHT22;7139;48.114;11.442;2022-08-19T04:47:53;18.70;99.90
14122;DHT22;7139;48.114;11.442;2022-08-19T04:50:21;18.70;99.90
14122;DHT22;7139;48.114;11.442;2022-08-19T04:52:50;18.70;99.90
14122;DHT22;7139;48.114;11.442;2022-08-19T04:55:17;18.70;99.90
14122;DHT22;7139;48.114;11.442;2022-08-19T04:57:44;18.70;99.90
14122;DHT22;7139;48.114;11.442;2022-08-19T05:00:11;18.70;99.90
14122;DHT22;7139;48.114;11.442;2022-08-19T05:02:39;18.80;99.90
14122;DHT22;7139;48.114;11.442;2022-08-19T05:05:07;18.80;99.90
14122;DHT22;7139;48.114;11.442;2022-08-19T05:07:34;18.80;99.90
14122;DHT22;7139;48.114;11.442;2022-08-19T05:10:01;18.80;99.90
14122;DHT22;7139;48.114;11.442;2022-08-19T05:12:28;18.80;99.90
14122;DHT22;7139;48.114;11.442;2022-08-19T05:14:55;18.80;99.90
14122;DHT22;7139;48.114;11.442;2022-08-19T05:17:22;18.80;99.90
14122;DHT22;7139;48.114;11.442;2022-08-19T05:19:50;18.80;99.90
14122;DHT22;7139;48.114;11.442;2022-08-19T05:22:34;18.80;99.90
14122;DHT22;7139;48.114;11.442;2022-08-19T05:25:04;18.80;99.90
14122;DHT22;7139;48.114;11.442;2022-08-19T05:27:31;18.90;99.90
14122;DHT22;7139;48.114;11.442;2022-08-19T05:29:58;18.90;99.90
14122;DHT22;7139;48.114;11.442;2022-08-19T05:32:26;18.80;99.90
14122;DHT22;7139;48.114;11.442;2022-08-19T05:34:54;18.80;99.90
14122;DHT22;7139;48.114;11.442;2022-08-19T05:37:21;18.90;99.90
14122;DHT22;7139;48.114;11.442;2022-08-19T05:39:52;18.90;99.90
14122;DHT22;7139;48.114;11.442;2022-08-19T05:42:20;18.90;99.90
14122;DHT22;7139;48.114;11.442;2022-08-19T05:44:47;18.90;99.90
14122;DHT22;7139;48.114;11.442;2022-08-19T05:47:15;18.90;99.90
14122;DHT22;7139;48.114;11.442;2022-08-19T05:49:44;18.90;99.90
14122;DHT22;7139;48.114;11.442;2022-08-19T05:52:13;18.90;99.90
14122;DHT22;7139;48.114;11.442;2022-08-19T05:54:41;18.90;99.90
14122;DHT22;7139;48.114;11.442;2022-08-19T05:57:09;18.90;99.90
14122;DHT22;7139;48.114;11.442;2022-08-19T05:59:36;19.00;99.90
14122;DHT22;7139;48.114;11.442;2022-08-19T06:02:04;19.00;99.90
14122;DHT22;7139;48.114;11.442;2022-08-19T06:04:31;19.00;99.90
14122;DHT22;7139;48.114;11.442;2022-08-19T06:06:58;19.00;99.90
14122;DHT22;7139;48.114;11.442;2022-08-19T06:09:28;18.90;99.90
14122;DHT22;7139;48.114;11.442;2022-08-19T06:11:56;19.00;99.90
14122;DHT22;7139;48.114;11.442;2022-08-19T06:14:26;19.00;99.90
14122;DHT22;7139;48.114;11.442;2022-08-19T06:16:53;19.00;99.90
14122;DHT22;7139;48.114;11.442;2022-08-19T06:19:22;19.10;99.90
14122;DHT22;7139;48.114;11.442;2022-08-19T06:21:51;19.00;99.90
14122;DHT22;7139;48.114;11.442;2022-08-19T06:24:20;19.00;99.90
14122;DHT22;7139;48.114;11.442;2022-08-19T06:26:51;19.10;99.90
14122;DHT22;7139;48.114;11.442;2022-08-19T06:29:20;19.10;99.90
14122;DHT22;7139;48.114;11.442;2022-08-19T06:31:48;19.10;99.90
14122;DHT22;7139;48.114;11.442;2022-08-19T06:34:16;19.10;99.90
14122;DHT22;7139;48.114;11.442;2022-08-19T06:36:46;19.20;99.90
14122;DHT22;7139;48.114;11.442;2022-08-19T06:39:16;19.20;99.90
14122;DHT22;7139;48.114;11.442;2022-08-19T06:41:47;19.20;99.90
14122;DHT22;7139;48.114;11.442;2022-08-19T06:44:16;19.20;99.90
14122;DHT22;7139;48.114;11.442;2022-08-19T06:46:43;19.10;99.90
14122;DHT22;7139;48.114;11.442;2022-08-19T06:49:11;19.10;99.90
14122;DHT22;7139;48.114;11.442;2022-08-19T06:51:40;19.10;99.90
14122;DHT22;7139;48.114;11.442;2022-08-19T06:54:07;19.20;99.90
14122;DHT22;7139;48.114;11.442;2022-08-19T06:56:34;19.10;99.90
14122;DHT22;7139;48.114;11.442;2022-08-19T06:59:02;19.10;99.90
14122;DHT22;7139;48.114;11.442;2022-08-19T07:01:34;19.20;99.90
14122;DHT22;7139;48.114;11.442;2022-08-19T07:04:03;19.20;99.90
14122;DHT22;7139;48.114;11.442;2022-08-19T07:06:30;19.20;99.90
14122;DHT22;7139;48.114;11.442;2022-08-19T07:08:57;19.20;99.90
14122;DHT22;7139;48.114;11.442;2022-08-19T07:11:24;19.20;99.90
14122;DHT22;7139;48.114;11.442;2022-08-19T07:13:51;19.30;99.90
14122;DHT22;7139;48.114;11.442;2022-08-19T07:16:19;19.30;99.90
14122;DHT22;7139;48.114;11.442;2022-08-19T07:18:49;19.30;99.90
14122;DHT22;7139;48.114;11.442;2022-08-19T07:21:18;19.30;99.90
14122;DHT22;7139;48.114;11.442;2022-08-19T07:23:46;19.30;99.90
14122;DHT22;7139;48.114;11.442;2022-08-19T07:26:18;19.40;99.90
14122;DHT22;7139;48.114;11.442;2022-08-19T07:28:46;19.40;99.90
14122;DHT22;7139;48.114;11.442;2022-08-19T07:31:15;19.40;99.90
14122;DHT22;7139;48.114;11.442;2022-08-19T07:33:44;19.50;99.90
14122;DHT22;7139;48.114;11.442;2022-08-19T07:36:15;19.40;99.90
14122;DHT22;7139;48.114;11.442;2022-08-19T07:38:44;19.50;99.90
14122;DHT22;7139;48.114;11.442;2022-08-19T07:41:14;19.50;99.90
14122;DHT22;7139;48.114;11.442;2022-08-19T07:43:41;19.60;99.90
14122;DHT22;7139;48.114;11.442;2022-08-19T07:46:09;19.60;99.90
14122;DHT22;7139;48.114;11.442;2022-08-19T07:48:37;19.70;99.90
14122;DHT22;7139;48.114;11.442;2022-08-19T07:51:06;19.80;99.90
14122;DHT22;7139;48.114;11.442;2022-08-19T07:53:36;19.80;99.90
14122;DHT22;7139;48.114;11.442;2022-08-19T07:56:04;19.90;99.90
14122;DHT22;7139;48.114;11.442;2022-08-19T07:58:33;19.90;99.90
14122;DHT22;7139;48.114;11.442;2022-08-19T08:01:00;19.90;99.90
14122;DHT22;7139;48.114;11.442;2022-08-19T08:03:28;19.90;99.90
14122;DHT22;7139;48.114;11.442;2022-08-19T08:06:09;19.90;99.90
14122;DHT22;7139;48.114;11.442;2022-08-19T08:08:54;19.90;99.90
14122;DHT22;7139;48.114;11.442;2022-08-19T08:11:50;19.90;99.90
14122;DHT22;7139;48.114;11.442;2022-08-19T08:14:20;19.90;99.90
14122;DHT22;7139;48.114;11.442;2022-08-19T08:16:48;19.90;99.90
14122;DHT22;7139;48.114;11.442;2022-08-19T08:19:17;19.80;99.90
14122;DHT22;7139;48.114;11.442;2022-08-19T08:21:44;19.80;99.90
14122;DHT22;7139;48.114;11.442;2022-08-19T08:24:12;19.80;99.90
14122;DHT22;7139;48.114;11.442;2022-08-19T08:26:39;19.70;99.90
14122;DHT22;7139;48.114;11.442;2022-08-19T08:29:08;19.80;99.90
14122;DHT22;7139;48.114;11.442;2022-08-19T08:31:36;19.80;99.90
14122;DHT22;7139;48.114;11.442;2022-08-19T08:34:02;19.70;99.90
14122;DHT22;7139;48.114;11.442;2022-08-19T08:36:29;19.80;99.90
14122;DHT22;7139;48.114;11.442;2022-08-19T08:38:58;19.70;99.90
14122;DHT22;7139;48.114;11.442;2022-08-19T08:41:37;19.70;99.90
14122;DHT22;7139;48.114;11.442;2022-08-19T08:44:13;19.80;99.90
14122;DHT22;7139;48.114;11.442;2022-08-19T08:46:44;19.80;99.90
14122;DHT22;7139;48.114;11.442;2022-08-19T08:49:29;19.70;99.90
14122;DHT22;7139;48.114;11.442;2022-08-19T08:52:03;19.70;99.90
14122;DHT22;7139;48.114;11.442;2022-08-19T08:54:34;19.70;99.90
14122;DHT22;7139;48.114;11.442;2022-08-19T08:57:19;19.70;99.90
14122;DHT22;7139;48.114;11.442;2022-08-19T08:59:48;19.70;99.90
14122;DHT22;7139;48.114;11.442;2022-08-19T09:02:17;19.60;99.90
14122;DHT22;7139;48.114;11.442;2022-08-19T09:04:45;19.60;99.90
14122;DHT22;7139;48.114;11.442;2022-08-19T09:07:23;19.60;99.90
14122;DHT22;7139;48.114;11.442;2022-08-19T09:09:54;19.60;99.90
14122;DHT22;7139;48.114;11.442;2022-08-19T09:12:31;19.50;99.90
14122;DHT22;7139;48.114;11.442;2022-08-19T09:15:04;19.60;99.90
14122;DHT22;7139;48.114;11.442;2022-08-19T09:17:33;19.60;99.90
14122;DHT22;7139;48.114;11.442;2022-08-19T09:20:04;19.60;99.90
14122;DHT22;7139;48.114;11.442;2022-08-19T09:22:33;19.60;99.90
14122;DHT22;7139;48.114;11.442;2022-08-19T09:25:01;19.60;99.90
14122;DHT22;7139;48.114;11.442;2022-08-19T09:27:31;19.60;99.90
14122;DHT22;7139;48.114;11.442;2022-08-19T09:29:58;19.60;99.90
14122;DHT22;7139;48.114;11.442;2022-08-19T09:32:25;19.60;99.90
14122;DHT22;7139;48.114;11.442;2022-08-19T09:34:53;19.70;99.90
14122;DHT22;7139;48.114;11.442;2022-08-19T09:37:20;19.70;99.90
14122;DHT22;7139;48.114;11.442;2022-08-19T09:39:47;19.70;99.90
14122;DHT22;7139;48.114;11.442;2022-08-19T09:42:13;19.70;99.90
14122;DHT22;7139;48.114;11.442;2022-08-19T09:44:42;19.70;99.90
14122;DHT22;7139;48.114;11.442;2022-08-19T09:47:10;19.70;99.90
14122;DHT22;7139;48.114;11.442;2022-08-19T09:49:39;19.70;99.90
14122;DHT22;7139;48.114;11.442;2022-08-19T09:52:08;19.60;99.90
14122;DHT22;7139;48.114;11.442;2022-08-19T09:54:36;19.70;99.90
14122;DHT22;7139;48.114;11.442;2022-08-19T09:57:03;19.70;99.90
14122;DHT22;7139;48.114;11.442;2022-08-19T09:59:30;19.70;99.90
14122;DHT22;7139;48.114;11.442;2022-08-19T10:01:58;19.70;99.90
14122;DHT22;7139;48.114;11.442;2022-08-19T10:04:25;19.70;99.90
14122;DHT22;7139;48.114;11.442;2022-08-19T10:07:12;19.80;99.90
14122;DHT22;7139;48.114;11.442;2022-08-19T10:09:39;19.90;99.90
14122;DHT22;7139;48.114;11.442;2022-08-19T10:12:07;19.90;99.90
14122;DHT22;7139;48.114;11.442;2022-08-19T10:14:34;19.90;99.90
14122;DHT22;7139;48.114;11.442;2022-08-19T10:17:02;19.90;99.90
14122;DHT22;7139;48.114;11.442;2022-08-19T10:19:29;20.00;99.90
14122;DHT22;7139;48.114;11.442;2022-08-19T10:22:03;20.00;99.90
14122;DHT22;7139;48.114;11.442;2022-08-19T10:24:30;20.10;99.90
14122;DHT22;7139;48.114;11.442;2022-08-19T10:26:57;20.20;99.90
14122;DHT22;7139;48.114;11.442;2022-08-19T10:29:24;20.20;99.90
14122;DHT22;7139;48.114;11.442;2022-08-19T10:31:53;20.40;99.90
14122;DHT22;7139;48.114;11.442;2022-08-19T10:34:22;20.40;99.90
14122;DHT22;7139;48.114;11.442;2022-08-19T10:36:49;20.40;99.90
14122;DHT22;7139;48.114;11.442;2022-08-19T10:39:16;20.50;99.90
14122;DHT22;7139;48.114;11.442;2022-08-19T10:41:43;20.50;99.90
14122;DHT22;7139;48.114;11.442;2022-08-19T10:44:11;20.60;99.90
14122;DHT22;7139;48.114;11.442;2022-08-19T10:46:40;20.70;99.90
14122;DHT22;7139;48.114;11.442;2022-08-19T10:49:09;20.80;99.90
14122;DHT22;7139;48.114;11.442;2022-08-19T10:51:38;20.90;99.90
14122;DHT22;7139;48.114;11.442;2022-08-19T10:54:22;21.10;99.90
14122;DHT22;7139;48.114;11.442;2022-08-19T10:57:09;21.20;99.90
14122;DHT22;7139;48.114;11.442;2022-08-19T10:59:36;21.20;99.90
14122;DHT22;7139;48.114;11.442;2022-08-19T11:02:05;21.20;99.90
14122;DHT22;7139;48.114;11.442;2022-08-19T11:04:35;21.20;99.90
14122;DHT22;7139;48.114;11.442;2022-08-19T11:07:03;21.00;99.90
14122;DHT22;7139;48.114;11.442;2022-08-19T11:09:31;20.80;99.90
14122;DHT22;7139;48.114;11.442;2022-08-19T11:11:58;20.60;99.90
14122;DHT22;7139;48.114;11.442;2022-08-19T11:14:25;20.40;99.90
14122;DHT22;7139;48.114;11.442;2022-08-19T11:16:52;20.30;99.90
14122;DHT22;7139;48.114;11.442;2022-08-19T11:19:21;20.30;99.90
14122;DHT22;7139;48.114;11.442;2022-08-19T11:21:50;20.40;99.90
14122;DHT22;7139;48.114;11.442;2022-08-19T11:24:20;20.40;99.90
14122;DHT22;7139;48.114;11.442;2022-08-19T11:26:49;20.50;99.90
14122;DHT22;7139;48.114;11.442;2022-08-19T11:29:17;20.50;99.90
14122;DHT22;7139;48.114;11.442;2022-08-19T11:31:49;20.60;99.90
14122;DHT22;7139;48.114;11.442;2022-08-19T11:34:18;20.70;99.90
14122;DHT22;7139;48.114;11.442;2022-08-19T11:36:46;20.70;99.90
14122;DHT22;7139;48.114;11.442;2022-08-19T11:39:16;20.70;99.90
14122;DHT22;7139;48.114;11.442;2022-08-19T11:41:44;20.70;99.90
14122;DHT22;7139;48.114;11.442;2022-08-19T11:44:11;20.60;99.90
14122;DHT22;7139;48.114;11.442;2022-08-19T11:46:40;20.60;99.90
14122;DHT22;7139;48.114;11.442;2022-08-19T11:49:11;20.60;99.90
14122;DHT22;7139;48.114;11.442;2022-08-19T11:51:38;20.50;99.90
14122;DHT22;7139;48.114;11.442;2022-08-19T11:54:06;20.50;99.90
14122;DHT22;7139;48.114;11.442;2022-08-19T11:56:32;20.40;99.90
14122;DHT22;7139;48.114;11.442;2022-08-19T11:59:01;20.40;99.90
14122;DHT22;7139;48.114;11.442;2022-08-19T12:01:29;20.30;99.90
14122;DHT22;7139;48.114;11.442;2022-08-19T12:03:57;20.20;99.90
14122;DHT22;7139;48.114;11.442;2022-08-19T12:06:31;20.30;99.90
14122;DHT22;7139;48.114;11.442;2022-08-19T12:09:02;20.20;99.90
14122;DHT22;7139;48.114;11.442;2022-08-19T12:11:29;20.30;99.90
14122;DHT22;7139;48.114;11.442;2022-08-19T12:13:56;20.20;99.90
14122;DHT22;7139;48.114;11.442;2022-08-19T12:16:26;20.10;99.90
14122;DHT22;7139;48.114;11.442;2022-08-19T12:18:54;20.10;99.90
14122;DHT22;7139;48.114;11.442;2022-08-19T12:21:24;20.10;99.90
14122;DHT22;7139;48.114;11.442;2022-08-19T12:23:54;20.20;99.90
14122;DHT22;7139;48.114;11.442;2022-08-19T12:26:21;20.30;99.90
14122;DHT22;7139;48.114;11.442;2022-08-19T12:28:48;20.30;99.90
14122;DHT22;7139;48.114;11.442;2022-08-19T12:31:15;20.40;99.90
14122;DHT22;7139;48.114;11.442;2022-08-19T12:33:45;20.50;99.90
14122;DHT22;7139;48.114;11.442;2022-08-19T12:36:13;20.50;99.90
14122;DHT22;7139;48.114;11.442;2022-08-19T12:38:41;20.50;99.90
14122;DHT22;7139;48.114;11.442;2022-08-19T12:41:11;20.50;99.90
14122;DHT22;7139;48.114;11.442;2022-08-19T12:43:39;20.50;99.90
14122;DHT22;7139;48.114;11.442;2022-08-19T12:46:07;20.40;99.90
14122;DHT22;7139;48.114;11.442;2022-08-19T12:48:34;20.40;99.90
14122;DHT22;7139;48.114;11.442;2022-08-19T12:51:07;20.50;99.90
14122;DHT22;7139;48.114;11.442;2022-08-19T12:53:34;20.60;99.90
14122;DHT22;7139;48.114;11.442;2022-08-19T12:56:02;20.60;99.90
14122;DHT22;7139;48.114;11.442;2022-08-19T12:58:30;20.60;99.90
14122;DHT22;7139;48.114;11.442;2022-08-19T13:01:05;20.70;99.90
14122;DHT22;7139;48.114;11.442;2022-08-19T13:03:32;20.70;99.90
14122;DHT22;7139;48.114;11.442;2022-08-19T13:05:59;20.70;99.90
14122;DHT22;7139;48.114;11.442;2022-08-19T13:08:27;20.70;99.90
14122;DHT22;7139;48.114;11.442;2022-08-19T13:10:54;20.80;99.90
14122;DHT22;7139;48.114;11.442;2022-08-19T13:13:21;20.80;99.90
14122;DHT22;7139;48.114;11.442;2022-08-19T13:15:48;20.70;99.90
14122;DHT22;7139;48.114;11.442;2022-08-19T13:18:14;20.70;99.90
14122;DHT22;7139;48.114;11.442;2022-08-19T13:20:41;20.80;99.90
14122;DHT22;7139;48.114;11.442;2022-08-19T13:23:09;20.80;99.90
14122;DHT22;7139;48.114;11.442;2022-08-19T13:25:37;20.90;99.90
14122;DHT22;7139;48.114;11.442;2022-08-19T13:28:04;20.90;99.90
14122;DHT22;7139;48.114;11.442;2022-08-19T13:30:32;21.00;99.90
14122;DHT22;7139;48.114;11.442;2022-08-19T13:33:16;20.90;99.90
14122;DHT22;7139;48.114;11.442;2022-08-19T13:35:46;20.90;99.90
14122;DHT22;7139;48.114;11.442;2022-08-19T13:38:15;20.80;99.90
14122;DHT22;7139;48.114;11.442;2022-08-19T13:40:44;20.70;99.90
14122;DHT22;7139;48.114;11.442;2022-08-19T13:43:11;20.70;99.90
14122;DHT22;7139;48.114;11.442;2022-08-19T13:45:39;20.60;99.90
14122;DHT22;7139;48.114;11.442;2022-08-19T13:48:07;20.60;99.90
14122;DHT22;7139;48.114;11.442;2022-08-19T13:50:38;20.70;99.90
14122;DHT22;7139;48.114;11.442;2022-08-19T13:53:07;20.80;99.90
14122;DHT22;7139;48.114;11.442;2022-08-19T13:55:34;20.70;99.90
14122;DHT22;7139;48.114;11.442;2022-08-19T13:58:03;20.60;99.90
14122;DHT22;7139;48.114;11.442;2022-08-19T14:00:32;20.60;99.90
14122;DHT22;7139;48.114;11.442;2022-08-19T14:02:59;20.70;99.90
14122;DHT22;7139;48.114;11.442;2022-08-19T14:05:27;20.60;99.90
14122;DHT22;7139;48.114;11.442;2022-08-19T14:07:55;20.50;99.90
14122;DHT22;7139;48.114;11.442;2022-08-19T14:10:22;20.50;99.90
14122;DHT22;7139;48.114;11.442;2022-08-19T14:12:51;20.60;99.90
14122;DHT22;7139;48.114;11.442;2022-08-19T14:15:20;20.50;99.90
14122;DHT22;7139;48.114;11.442;2022-08-19T14:17:46;20.60;99.90
14122;DHT22;7139;48.114;11.442;2022-08-19T14:20:15;20.70;99.90
14122;DHT22;7139;48.114;11.442;2022-08-19T14:22:42;20.70;99.90
14122;DHT22;7139;48.114;11.442;2022-08-19T14:25:12;20.70;99.90
14122;DHT22;7139;48.114;11.442;2022-08-19T14:27:41;20.70;99.90
14122;DHT22;7139;48.114;11.442;2022-08-19T14:30:11;20.70;99.90
14122;DHT22;7139;48.114;11.442;2022-08-19T14:32:39;20.60;99.90
14122;DHT22;7139;48.114;11.442;2022-08-19T14:35:09;20.70;99.90
14122;DHT22;7139;48.114;11.442;2022-08-19T14:37:37;20.60;99.90
14122;DHT22;7139;48.114;11.442;2022-08-19T14:40:06;20.50;99.90
14122;DHT22;7139;48.114;11.442;2022-08-19T14:42:33;20.50;99.90
14122;DHT22;7139;48.114;11.442;2022-08-19T14:45:01;20.40;99.90
14122;DHT22;7139;48.114;11.442;2022-08-19T14:47:27;20.50;99.90
14122;DHT22;7139;48.114;11.442;2022-08-19T14:49:55;20.40;99.90
14122;DHT22;7139;48.114;11.442;2022-08-19T14:52:22;20.40;99.90
14122;DHT22;7139;48.114;11.442;2022-08-19T14:54:49;20.40;99.90
14122;DHT22;7139;48.114;11.442;2022-08-19T14:57:16;20.30;99.90
14122;DHT22;7139;48.114;11.442;2022-08-19T14:59:43;20.30;99.90
14122;DHT22;7139;48.114;11.442;2022-08-19T15:02:10;20.30;99.90
14122;DHT22;7139;48.114;11.442;2022-08-19T15:04:37;20.30;99.90
14122;DHT22;7139;48.114;11.442;2022-08-19T15:07:06;20.30;99.90
14122;DHT22;7139;48.114;11.442;2022-08-19T15:09:33;20.40;99.90
14122;DHT22;7139;48.114;11.442;2022-08-19T15:12:00;20.40;99.90
14122;DHT22;7139;48.114;11.442;2022-08-19T15:14:28;20.40;99.90
14122;DHT22;7139;48.114;11.442;2022-08-19T15:17:00;20.40;99.90
14122;DHT22;7139;48.114;11.442;2022-08-19T15:19:28;20.40;99.90
14122;DHT22;7139;48.114;11.442;2022-08-19T15:21:55;20.40;99.90
14122;DHT22;7139;48.114;11.442;2022-08-19T15:24:23;20.40;99.90
14122;DHT22;7139;48.114;11.442;2022-08-19T15:26:51;20.40;99.90
14122;DHT22;7139;48.114;11.442;2022-08-19T15:29:17;20.40;99.90
14122;DHT22;7139;48.114;11.442;2022-08-19T15:31:46;20.30;99.90
14122;DHT22;7139;48.114;11.442;2022-08-19T15:34:13;20.30;99.90
14122;DHT22;7139;48.114;11.442;2022-08-19T15:36:40;20.30;99.90
14122;DHT22;7139;48.114;11.442;2022-08-19T15:39:07;20.20;99.90